Terminal Aerodrome Forecast
Issued by NWS Bismarck, ND

Home | Current Version | Previous Version | Graphics & Text | Print | Product List | Glossary Off
Versions: 1 2 3 4 5 6 7 8 9 10 11 12 13 14 15 16 17 18 19 20 21 22 23 24

000
FTUS43 KBIS 251552 AAB
TAFBIS
TAF AMD
KBIS 251552Z 2516/2612 32011G17KT P6SM OVC015
     FM251700 31010G17KT P6SM OVC025
     FM251800 31010G16KT P6SM BKN035
     FM252000 30008KT P6SM SCT050
     FM260100 27006KT P6SM SCT070=

USA.gov is the U.S. government's official web portal to all federal, state and local government web resources and services.